createdAt,value
2023-03-10T00:04:26.800Z,73.5
2023-03-10T00:14:33.163Z,75
2023-03-10T00:24:39.337Z,74
2023-03-10T00:34:45.602Z,74.5
2023-03-10T00:44:51.850Z,78
2023-03-10T00:54:58.106Z,77.5
2023-03-10T01:05:04.378Z,78
2023-03-10T01:15:10.629Z,80
2023-03-10T01:25:16.894Z,78.5
2023-03-10T01:35:23.124Z,82
2023-03-10T01:45:29.293Z,83
2023-03-10T01:55:35.657Z,83.5
2023-03-10T02:05:41.917Z,84.5
2023-03-10T02:15:48.262Z,83
2023-03-10T02:25:54.398Z,83.5
2023-03-10T13:20:08.736Z,86.5
2023-03-10T13:30:14.959Z,88
2023-03-10T13:40:21.120Z,87
2023-03-10T13:50:27.373Z,90
2023-03-10T14:00:33.536Z,89.5
2023-03-10T14:10:39.740Z,93
2023-03-10T14:20:45.957Z,92.5
2023-03-10T14:30:52.170Z,93.5
2023-03-10T14:40:58.458Z,95.5
2023-03-10T14:51:04.586Z,96
2023-03-10T15:01:10.820Z,93.5
2023-03-10T15:11:17.032Z,89.5
2023-03-10T15:21:23.394Z,90
2023-03-10T15:31:29.626Z,85
2023-03-10T15:41:35.777Z,85
2023-03-10T15:51:42.040Z,82.5
2023-03-10T16:01:48.222Z,84
2023-03-10T16:11:54.442Z,85.5
2023-03-10T16:22:00.715Z,85
2023-03-10T16:32:06.900Z,83
2023-03-10T16:42:13.098Z,78.5
2023-03-10T16:52:19.346Z,76.5
2023-03-10T17:02:25.624Z,76
2023-03-10T17:12:31.894Z,74
2023-03-10T17:22:38.211Z,74.5
2023-03-10T17:32:44.607Z,74
2023-03-10T17:42:50.826Z,71.5
2023-03-10T17:52:56.915Z,74
2023-03-10T18:03:02.232Z,73.5
2023-03-10T18:13:08.509Z,74
2023-03-10T18:23:14.781Z,78
2023-03-10T18:33:20.972Z,79
2023-03-10T18:43:27.418Z,70
2023-03-10T18:53:33.687Z,67
2023-03-10T19:03:39.956Z,67.5
2023-03-10T19:13:46.236Z,68
2023-03-10T19:23:52.493Z,68.5
2023-03-10T19:33:58.711Z,69
2023-03-10T19:44:04.973Z,70.5
2023-03-10T19:54:11.245Z,71
2023-03-10T20:04:17.492Z,71
2023-03-10T20:14:23.759Z,72
2023-03-10T20:24:30.035Z,72
2023-03-10T20:34:36.281Z,70
2023-03-10T20:44:42.543Z,72.5
2023-03-10T20:54:48.817Z,75
2023-03-10T21:04:55.076Z,86
2023-03-10T21:15:01.355Z,84
2023-03-10T21:25:07.627Z,86
2023-03-10T21:35:13.869Z,84
2023-03-10T21:45:20.141Z,85.5
2023-03-10T21:55:26.393Z,86.5
2023-03-10T22:05:32.669Z,86.5
2023-03-10T22:15:38.989Z,84.5
2023-03-10T22:25:45.213Z,82
2023-03-10T22:35:51.442Z,80.5
2023-03-10T22:45:57.705Z,80
2023-03-10T22:56:03.987Z,78
2023-03-10T23:06:10.240Z,83
2023-03-10T23:16:16.437Z,85
2023-03-10T23:26:22.741Z,84
2023-03-10T23:36:28.989Z,89.5
2023-03-10T23:46:35.247Z,87
2023-03-10T23:56:41.506Z,85
